Time;durP1;ratioP1;P1;durP2;ratioP2;P2;SDS_P1;SDS_P2;PMS_P1;PMS_P2;Temp;Humidity;BMP_temperature;BMP_pressure;BME280_temperature;BME280_humidity;BME280_pressure;Samples;Min_cycle;Max_cycle;Signal;HPM_P1;HPM_P2
2020/12/11 00:00:13;;;;;;;23.20;15.32;;;1.40;99.90;;;;;;5091647;28;20055;-79
2020/12/11 00:02:40;;;;;;;27.25;17.70;;;1.50;99.90;;;;;;5086572;28;20051;-79
2020/12/11 00:05:06;;;;;;;26.63;16.80;;;1.50;99.90;;;;;;5092549;28;20048;-80
2020/12/11 00:07:36;;;;;;;23.00;16.25;;;1.50;99.90;;;;;;5095860;28;20044;-78
2020/12/11 00:10:08;;;;;;;24.73;15.95;;;1.50;99.90;;;;;;5083602;28;20063;-79
2020/12/11 00:12:35;;;;;;;23.23;16.00;;;1.50;99.90;;;;;;5095740;28;20052;-79
2020/12/11 00:15:03;;;;;;;22.05;15.25;;;1.50;99.90;;;;;;5095653;28;20111;-78
2020/12/11 00:17:31;;;;;;;26.20;16.35;;;1.50;99.90;;;;;;5096113;28;20105;-78
2020/12/11 00:19:58;;;;;;;24.58;16.02;;;1.50;99.90;;;;;;5095621;28;20075;-79
2020/12/11 00:22:25;;;;;;;24.23;15.57;;;1.40;99.90;;;;;;5097045;28;20055;-79
2020/12/11 00:24:54;;;;;;;26.15;17.05;;;1.50;99.90;;;;;;5088563;28;20056;-78
2020/12/11 00:27:21;;;;;;;25.40;16.80;;;1.50;99.90;;;;;;5091372;28;20435;-78
2020/12/11 00:29:48;;;;;;;23.83;15.15;;;1.50;99.90;;;;;;5080532;28;20070;-78
2020/12/11 00:32:16;;;;;;;25.73;16.85;;;1.50;99.90;;;;;;5094616;28;20082;-77
2020/12/11 00:34:45;;;;;;;25.48;17.42;;;1.50;99.90;;;;;;5095641;28;20048;-78
2020/12/11 00:37:12;;;;;;;25.05;16.35;;;1.50;99.90;;;;;;5093528;28;20051;-78
2020/12/11 00:39:38;;;;;;;25.80;17.00;;;1.50;99.90;;;;;;5083762;28;20075;-79
2020/12/11 00:42:05;;;;;;;25.90;16.50;;;1.50;99.90;;;;;;5091946;28;20127;-79
2020/12/11 00:44:31;;;;;;;23.27;15.90;;;1.50;99.90;;;;;;5091823;28;20044;-80
2020/12/11 00:47:02;;;;;;;23.33;15.80;;;1.50;99.90;;;;;;5095148;28;20094;-79
2020/12/11 00:49:28;;;;;;;24.85;15.80;;;1.60;99.90;;;;;;5096164;28;20087;-80
2020/12/11 00:51:56;;;;;;;23.40;15.27;;;1.60;99.90;;;;;;5095542;28;20551;-79
2020/12/11 00:54:23;;;;;;;24.65;16.02;;;1.60;99.90;;;;;;5098321;28;20079;-79
2020/12/11 00:56:49;;;;;;;23.67;15.48;;;1.60;99.90;;;;;;5096895;28;20575;-79
2020/12/11 00:59:16;;;;;;;26.83;17.08;;;1.60;99.90;;;;;;5096791;28;20055;-79
2020/12/11 01:01:42;;;;;;;27.42;17.85;;;1.60;99.90;;;;;;5093834;28;20109;-79
2020/12/11 01:04:09;;;;;;;26.00;16.90;;;1.60;99.90;;;;;;5094759;28;20508;-80
2020/12/11 01:06:35;;;;;;;23.90;15.20;;;1.60;99.90;;;;;;5094151;28;20123;-78
2020/12/11 01:09:03;;;;;;;24.15;16.23;;;1.60;99.90;;;;;;5093255;28;20152;-78
2020/12/11 01:11:29;;;;;;;29.35;17.50;;;1.60;99.90;;;;;;5093140;28;20048;-78
2020/12/11 01:13:56;;;;;;;24.80;16.88;;;1.60;99.90;;;;;;5093682;28;20094;-78
2020/12/11 01:16:22;;;;;;;27.60;18.83;;;1.60;99.90;;;;;;5093428;28;20175;-79
2020/12/11 01:18:48;;;;;;;28.63;18.88;;;1.60;99.90;;;;;;5093880;28;20104;-79
2020/12/11 01:21:15;;;;;;;29.40;18.50;;;1.60;99.90;;;;;;5093512;28;20127;-79
2020/12/11 01:23:41;;;;;;;26.25;18.50;;;1.60;99.90;;;;;;5094320;28;20139;-78
2020/12/11 01:26:09;;;;;;;29.70;19.42;;;1.60;99.90;;;;;;5094313;28;20127;-80
2020/12/11 01:28:36;;;;;;;28.25;18.52;;;1.60;99.90;;;;;;5095578;28;20095;-79
2020/12/11 01:31:02;;;;;;;29.40;18.83;;;1.60;99.90;;;;;;5093327;28;20138;-78
2020/12/11 01:33:29;;;;;;;28.50;18.20;;;1.60;99.90;;;;;;5093303;28;20094;-78
2020/12/11 01:35:55;;;;;;;29.40;19.33;;;1.70;99.90;;;;;;5093613;28;20097;-79
2020/12/11 01:38:22;;;;;;;27.70;18.45;;;1.70;99.90;;;;;;5093464;28;20057;-78
2020/12/11 01:40:48;;;;;;;27.15;18.42;;;1.70;99.90;;;;;;5093780;28;20124;-79
2020/12/11 01:43:20;;;;;;;29.35;18.00;;;1.70;99.90;;;;;;5092957;28;20126;-79
2020/12/11 01:45:46;;;;;;;29.42;18.40;;;1.70;99.90;;;;;;5095200;28;20044;-79
2020/12/11 01:48:13;;;;;;;26.98;16.92;;;1.60;99.90;;;;;;5093446;28;20497;-79
2020/12/11 01:50:40;;;;;;;26.35;18.60;;;1.60;99.90;;;;;;5093467;28;20219;-78
2020/12/11 01:53:09;;;;;;;26.60;17.83;;;1.60;99.90;;;;;;5091697;28;20131;-78
2020/12/11 01:55:37;;;;;;;28.42;17.73;;;1.60;99.90;;;;;;5092019;28;20051;-79
2020/12/11 01:58:10;;;;;;;27.38;18.80;;;1.70;99.90;;;;;;5091933;28;20095;-78
2020/12/11 02:00:42;;;;;;;26.65;18.08;;;1.70;99.90;;;;;;5092519;28;20131;-79
2020/12/11 02:03:10;;;;;;;25.80;16.63;;;1.70;99.90;;;;;;5092867;28;20074;-78
2020/12/11 02:05:36;;;;;;;25.85;17.77;;;1.70;99.90;;;;;;5092774;28;20321;-78
2020/12/11 02:08:03;;;;;;;25.17;16.83;;;1.70;99.90;;;;;;5092951;28;20109;-80
2020/12/11 02:10:29;;;;;;;24.92;15.23;;;1.70;99.90;;;;;;5093260;28;20052;-79
2020/12/11 02:12:56;;;;;;;26.45;17.85;;;1.70;99.90;;;;;;5093622;28;20143;-80
2020/12/11 02:15:22;;;;;;;25.73;16.33;;;1.70;99.90;;;;;;5123213;22;20071;-80
2020/12/11 02:17:55;;;;;;;26.65;16.70;;;1.70;99.90;;;;;;5107564;28;20103;-78
2020/12/11 02:20:21;;;;;;;;;;;1.70;99.90;;;;;;5116906;28;20055;-79
2020/12/11 02:22:49;;;;;;;26.02;16.08;;;1.70;99.90;;;;;;5114267;28;19963;-79
2020/12/11 02:25:15;;;;;;;24.52;16.30;;;1.70;99.90;;;;;;5120389;28;20051;-79
2020/12/11 02:27:41;;;;;;;25.65;16.88;;;1.70;99.90;;;;;;5125397;28;20109;-79
2020/12/11 02:30:08;;;;;;;24.50;15.23;;;1.70;99.90;;;;;;5124220;28;20051;-79
2020/12/11 02:32:34;;;;;;;27.45;17.73;;;1.70;99.90;;;;;;5121829;28;20086;-80
2020/12/11 02:35:00;;;;;;;25.83;16.58;;;1.80;99.90;;;;;;5122001;28;20087;-79
2020/12/11 02:37:27;;;;;;;25.42;16.35;;;1.70;99.90;;;;;;5121378;28;20044;-78
2020/12/11 02:39:54;;;;;;;25.50;17.52;;;1.70;99.90;;;;;;5120435;28;20542;-79
2020/12/11 02:42:20;;;;;;;27.88;18.27;;;1.60;99.90;;;;;;5120476;28;20083;-79
2020/12/11 02:44:47;;;;;;;26.60;17.77;;;1.60;99.90;;;;;;5121440;28;20090;-79
2020/12/11 02:47:15;;;;;;;23.42;17.27;;;1.50;99.90;;;;;;5136164;28;20036;-80
2020/12/11 02:49:41;;;;;;;29.23;17.33;;;1.50;99.90;;;;;;5136863;28;20067;-79
2020/12/11 02:52:08;;;;;;;28.48;18.23;;;1.50;99.90;;;;;;5131410;28;20054;-79
2020/12/11 02:54:34;;;;;;;29.80;17.40;;;1.50;99.90;;;;;;5123831;28;20079;-79
2020/12/11 02:57:01;;;;;;;26.90;17.30;;;1.50;99.90;;;;;;5123343;28;20075;-79
2020/12/11 02:59:28;;;;;;;26.45;17.98;;;1.50;99.90;;;;;;5123139;28;20082;-79
2020/12/11 03:01:54;;;;;;;26.75;18.20;;;1.50;99.90;;;;;;5124630;28;20054;-80
2020/12/11 03:04:20;;;;;;;28.70;17.67;;;1.40;99.90;;;;;;5125143;28;20048;-80
2020/12/11 03:06:47;;;;;;;26.48;17.80;;;1.50;99.90;;;;;;5124055;28;20071;-80
2020/12/11 03:09:13;;;;;;;30.70;17.85;;;1.50;99.90;;;;;;5123730;28;20075;-79
2020/12/11 03:11:39;;;;;;;27.77;17.67;;;1.40;99.90;;;;;;5119060;28;20130;-79
2020/12/11 03:14:07;;;;;;;28.85;18.73;;;1.40;99.90;;;;;;5124935;28;20044;-78
2020/12/11 03:16:33;;;;;;;31.85;19.40;;;1.40;99.90;;;;;;5124814;27;20103;-79
2020/12/11 03:18:59;;;;;;;27.20;16.83;;;1.40;99.90;;;;;;5121470;28;20052;-79
2020/12/11 03:21:26;;;;;;;27.10;17.70;;;1.40;99.90;;;;;;5121256;28;20044;-78
2020/12/11 03:23:52;;;;;;;29.40;18.50;;;1.40;99.90;;;;;;5120973;28;20075;-78
2020/12/11 03:26:18;;;;;;;30.73;18.20;;;1.40;99.90;;;;;;5121053;28;20052;-78
2020/12/11 03:28:45;;;;;;;27.88;18.10;;;1.40;99.90;;;;;;5122780;28;20094;-78
2020/12/11 03:31:12;;;;;;;30.08;18.38;;;1.40;99.90;;;;;;5121613;28;20091;-79
2020/12/11 03:33:39;;;;;;;29.13;18.67;;;1.40;99.90;;;;;;5124889;28;20071;-80
2020/12/11 03:36:05;;;;;;;29.85;19.33;;;1.40;99.90;;;;;;5135006;28;20071;-78
2020/12/11 03:38:31;;;;;;;27.05;17.90;;;1.40;99.90;;;;;;5134285;28;20051;-77
2020/12/11 03:40:58;;;;;;;30.00;18.05;;;1.40;99.90;;;;;;5133761;28;20043;-78
2020/12/11 03:43:24;;;;;;;29.63;18.75;;;1.40;99.90;;;;;;5121203;28;20083;-79
2020/12/11 03:45:50;;;;;;;28.20;18.35;;;1.50;99.90;;;;;;5117934;28;20100;-78
2020/12/11 03:48:18;;;;;;;28.48;17.83;;;1.40;99.90;;;;;;5116016;28;20079;-79
2020/12/11 03:50:46;;;;;;;26.60;17.30;;;1.50;99.90;;;;;;5116597;28;20507;-78
2020/12/11 03:53:13;;;;;;;26.17;17.55;;;1.50;99.90;;;;;;5117286;28;20457;-77
2020/12/11 03:55:39;;;;;;;26.15;18.13;;;1.50;99.90;;;;;;5114974;28;21922;-78
2020/12/11 03:58:05;;;;;;;27.17;18.08;;;1.50;99.90;;;;;;5115250;28;20048;-77
2020/12/11 04:00:32;;;;;;;24.67;17.40;;;1.50;99.90;;;;;;5115857;28;20488;-79
2020/12/11 04:02:58;;;;;;;28.42;18.05;;;1.50;99.90;;;;;;5116209;28;20089;-78
2020/12/11 04:05:25;;;;;;;27.40;17.40;;;1.50;99.90;;;;;;5115655;28;20052;-77
2020/12/11 04:07:52;;;;;;;29.35;17.92;;;1.50;99.90;;;;;;5115055;27;20527;-78
2020/12/11 04:10:18;;;;;;;25.30;15.60;;;1.50;99.90;;;;;;5115683;28;20478;-77
2020/12/11 04:12:44;;;;;;;28.38;18.42;;;1.50;99.90;;;;;;5114751;28;20110;-75
2020/12/11 04:15:11;;;;;;;25.05;16.73;;;1.50;99.90;;;;;;5114840;28;20130;-79
2020/12/11 04:17:37;;;;;;;24.95;16.98;;;1.50;99.90;;;;;;5114676;28;20134;-76
2020/12/11 04:20:03;;;;;;;27.48;17.55;;;1.50;99.90;;;;;;5114905;28;20094;-77
2020/12/11 04:22:31;;;;;;;26.60;17.88;;;1.50;99.90;;;;;;5114376;28;20120;-77
2020/12/11 04:24:57;;;;;;;24.65;15.48;;;1.50;99.90;;;;;;5112852;28;20150;-77
2020/12/11 04:27:23;;;;;;;27.13;17.00;;;1.50;99.90;;;;;;5114688;28;20075;-76
2020/12/11 04:29:50;;;;;;;24.95;17.55;;;1.50;99.90;;;;;;5114592;28;20444;-77
2020/12/11 04:32:16;;;;;;;28.42;18.88;;;1.50;99.90;;;;;;5113930;28;20078;-78
2020/12/11 04:34:42;;;;;;;28.30;18.90;;;1.50;99.90;;;;;;5114132;28;20126;-77
2020/12/11 04:37:10;;;;;;;27.42;17.67;;;1.50;99.90;;;;;;5115075;28;20126;-78
2020/12/11 04:39:37;;;;;;;27.77;17.58;;;1.50;99.90;;;;;;5114706;28;20082;-77
2020/12/11 04:42:03;;;;;;;25.13;16.40;;;1.50;99.90;;;;;;5110143;28;20131;-77
2020/12/11 04:44:30;;;;;;;27.50;18.30;;;1.50;99.90;;;;;;5098657;28;20083;-77
2020/12/11 04:47:04;;;;;;;26.63;17.63;;;1.50;99.90;;;;;;5093247;28;20441;-77
2020/12/11 04:49:32;;;;;;;26.90;18.00;;;1.50;99.90;;;;;;5096635;28;20140;-77
2020/12/11 04:52:04;;;;;;;26.50;17.55;;;1.50;99.90;;;;;;5114967;28;20078;-77
2020/12/11 04:54:37;;;;;;;25.48;17.38;;;1.50;99.90;;;;;;5114974;28;20051;-77
2020/12/11 04:57:04;;;;;;;;;;;1.50;99.90;;;;;;5114540;28;20051;-77
2020/12/11 04:59:31;;;;;;;28.77;18.70;;;1.60;99.90;;;;;;5111986;28;19925;-78
2020/12/11 05:01:59;;;;;;;27.38;18.25;;;1.50;99.90;;;;;;5113688;28;20051;-77
2020/12/11 05:04:26;;;;;;;28.02;17.77;;;1.50;99.90;;;;;;5114232;28;20071;-79
2020/12/11 05:06:53;;;;;;;24.83;18.20;;;1.50;99.90;;;;;;5113442;28;20044;-77
2020/12/11 05:09:20;;;;;;;26.98;16.75;;;1.60;99.90;;;;;;5113123;27;20071;-77
2020/12/11 05:11:49;;;;;;;26.95;18.92;;;1.60;99.90;;;;;;5113856;28;20406;-79
2020/12/11 05:14:20;;;;;;;27.30;18.08;;;1.60;99.90;;;;;;5114959;28;20082;-78
2020/12/11 05:17:01;;;;;;;27.42;18.88;;;1.60;99.90;;;;;;5116358;28;20051;-79
2020/12/11 05:19:29;;;;;;;29.40;18.45;;;1.60;99.90;;;;;;5116530;28;20404;-78
2020/12/11 05:22:08;;;;;;;26.80;16.70;;;1.60;99.90;;;;;;5114644;28;20078;-78
2020/12/11 05:24:42;;;;;;;25.45;17.08;;;1.60;99.90;;;;;;5114567;28;20135;-78
2020/12/11 05:30:21;;;;;;;28.33;18.25;;;1.60;99.90;;;;;;5130919;27;20748;-79
2020/12/11 05:32:49;;;;;;;27.27;18.48;;;1.70;99.90;;;;;;5129591;28;20491;-78
2020/12/11 05:35:28;;;;;;;24.40;16.85;;;1.70;99.90;;;;;;5115926;28;20136;-78
2020/12/11 05:37:57;;;;;;;26.90;17.08;;;1.70;99.90;;;;;;5109785;28;20478;-79
2020/12/11 05:40:28;;;;;;;24.10;15.50;;;1.70;99.90;;;;;;5058765;28;20148;-79
2020/12/11 05:43:13;;;;;;;26.35;17.25;;;1.70;99.90;;;;;;5065035;22;20069;-78
2020/12/11 05:45:48;;;;;;;27.00;17.63;;;1.70;99.90;;;;;;5051440;28;20122;-79
2020/12/11 05:48:14;;;;;;;25.92;17.77;;;1.80;99.90;;;;;;5052275;28;20076;-79
2020/12/11 05:50:41;;;;;;;27.63;16.40;;;1.80;99.90;;;;;;5050989;28;20096;-80
2020/12/11 05:53:07;;;;;;;26.63;18.60;;;1.80;99.90;;;;;;5068299;28;20048;-79
2020/12/11 05:55:33;;;;;;;27.02;16.85;;;1.80;99.90;;;;;;5072488;28;20147;-79
2020/12/11 05:58:00;;;;;;;26.02;15.80;;;1.80;99.90;;;;;;5073116;28;20611;-79
2020/12/11 06:00:27;;;;;;;28.70;18.33;;;1.80;99.90;;;;;;5070534;28;20108;-80
2020/12/11 06:02:55;;;;;;;26.65;17.77;;;1.70;99.90;;;;;;5070190;28;20131;-79
2020/12/11 06:05:24;;;;;;;27.65;18.98;;;1.70;99.90;;;;;;5070457;28;20053;-79
2020/12/11 06:08:00;;;;;;;25.35;17.88;;;1.60;99.90;;;;;;5071782;28;20144;-78
2020/12/11 06:10:26;;;;;;;27.35;19.17;;;1.60;99.90;;;;;;5072034;28;20105;-80
2020/12/11 06:12:53;;;;;;;28.15;18.92;;;1.60;99.90;;;;;;5072262;28;20104;-80
2020/12/11 06:15:38;;;;;;;28.08;17.65;;;1.60;99.90;;;;;;5073644;28;20055;-80
2020/12/11 06:18:14;;;;;;;28.02;19.10;;;1.60;99.90;;;;;;5074499;28;20053;-79
2020/12/11 06:20:42;;;;;;;28.45;19.85;;;1.60;99.90;;;;;;5072464;28;20147;-80
2020/12/11 06:23:25;;;;;;;28.88;18.20;;;1.60;99.90;;;;;;5072905;28;20107;-79
2020/12/11 06:25:53;;;;;;;29.98;19.35;;;1.60;99.90;;;;;;5077315;28;20071;-81
2020/12/11 06:28:39;;;;;;;29.02;19.50;;;1.60;99.90;;;;;;5075648;28;20056;-79
2020/12/11 06:31:07;;;;;;;30.67;19.25;;;1.60;99.90;;;;;;5075534;28;20052;-80
2020/12/11 06:33:35;;;;;;;28.50;18.88;;;1.60;99.90;;;;;;5071680;28;20090;-77
2020/12/11 06:36:03;;;;;;;27.98;17.88;;;1.70;99.90;;;;;;5069945;28;20132;-79
2020/12/11 06:38:44;;;;;;;29.10;19.95;;;1.70;99.90;;;;;;5068880;28;20048;-78
2020/12/11 06:41:11;;;;;;;29.95;19.33;;;1.60;99.90;;;;;;5060438;28;20057;-80
2020/12/11 06:43:42;;;;;;;29.13;18.67;;;1.70;99.90;;;;;;5056794;28;20087;-80
2020/12/11 06:46:13;;;;;;;25.85;17.05;;;1.70;99.90;;;;;;5056241;28;20087;-79
2020/12/11 06:49:12;;;;;;;26.42;16.90;;;1.70;99.90;;;;;;5056345;28;20497;-79
2020/12/11 06:52:14;;;;;;;27.33;17.67;;;1.80;99.90;;;;;;5059518;28;20056;-79
2020/12/11 06:54:54;;;;;;;27.73;16.52;;;1.80;99.90;;;;;;5064305;28;20052;-79
2020/12/11 06:57:40;;;;;;;24.63;17.70;;;1.90;99.90;;;;;;5064380;28;20092;-78
2020/12/11 07:00:35;;;;;;;25.65;15.95;;;1.90;99.90;;;;;;5062982;28;20049;-79
2020/12/11 07:03:29;;;;;;;26.23;18.00;;;2.00;99.90;;;;;;5064933;28;20049;-79
2020/12/11 07:06:14;;;;;;;27.70;18.73;;;2.00;99.90;;;;;;5066882;28;20055;-80
2020/12/11 07:08:41;;;;;;;28.50;17.77;;;2.10;99.90;;;;;;5064584;28;20635;-79
2020/12/11 07:11:10;;;;;;;26.92;18.90;;;2.10;99.90;;;;;;5064204;28;20080;-79
2020/12/11 07:13:45;;;;;;;31.10;18.83;;;2.10;99.90;;;;;;5065235;28;20056;-80
2020/12/11 07:16:12;;;;;;;28.35;19.13;;;2.10;99.90;;;;;;5065307;28;20041;-79
2020/12/11 07:18:41;;;;;;;25.38;17.90;;;2.10;99.90;;;;;;5065582;28;20119;-79
2020/12/11 07:21:07;;;;;;;28.52;17.50;;;2.10;99.90;;;;;;5065738;28;20072;-79
2020/12/11 07:23:35;;;;;;;25.42;17.08;;;2.20;99.90;;;;;;5064304;28;20049;-79
2020/12/11 07:26:02;;;;;;;25.92;18.63;;;2.20;99.90;;;;;;5055810;28;20509;-79
2020/12/11 07:28:29;;;;;;;29.13;18.17;;;2.20;99.90;;;;;;5055721;28;20068;-79
2020/12/11 07:30:55;;;;;;;26.02;17.83;;;2.20;99.90;;;;;;5055824;28;20137;-79
2020/12/11 07:33:21;;;;;;;26.98;18.02;;;2.20;99.90;;;;;;5055780;28;20079;-79
2020/12/11 07:35:50;;;;;;;25.42;16.83;;;2.20;99.90;;;;;;5055397;28;20099;-79
2020/12/11 07:38:19;;;;;;;25.10;17.73;;;2.30;99.90;;;;;;5055037;28;20084;-79
2020/12/11 07:40:53;;;;;;;26.63;17.30;;;2.30;99.90;;;;;;5055110;28;20044;-79
2020/12/11 07:43:21;;;;;;;25.55;17.95;;;2.30;99.90;;;;;;5055572;28;20053;-79
2020/12/11 07:45:47;;;;;;;23.25;16.88;;;2.40;99.90;;;;;;5055677;28;20131;-80
2020/12/11 07:48:14;;;;;;;23.13;16.90;;;2.40;99.90;;;;;;5054418;28;20598;-78
2020/12/11 07:50:41;;;;;;;26.75;17.38;;;2.40;99.90;;;;;;5054548;28;20052;-79
2020/12/11 07:53:09;;;;;;;24.45;16.98;;;2.50;99.90;;;;;;5053178;28;20095;-79
2020/12/11 07:55:36;;;;;;;24.02;16.67;;;2.60;99.90;;;;;;5054458;28;20076;-78
2020/12/11 07:58:04;;;;;;;24.98;16.40;;;2.60;99.90;;;;;;5054351;28;20112;-79
2020/12/11 08:00:34;;;;;;;20.00;14.18;;;2.70;99.90;;;;;;5055416;28;20053;-81
2020/12/11 08:03:05;;;;;;;25.50;17.20;;;2.70;99.90;;;;;;5055403;28;20103;-79
2020/12/11 08:05:32;;;;;;;24.27;16.33;;;2.70;99.90;;;;;;5057405;28;20049;-78
2020/12/11 08:07:58;;;;;;;24.60;17.15;;;2.70;99.90;;;;;;5056827;28;20049;-78
2020/12/11 08:10:33;;;;;;;24.73;17.50;;;2.70;99.90;;;;;;5053866;28;20513;-79
2020/12/11 08:13:17;;;;;;;25.60;16.92;;;2.70;99.90;;;;;;5055913;28;20056;-79
2020/12/11 08:15:45;;;;;;;27.48;17.65;;;2.70;99.90;;;;;;5055225;28;20122;-80
2020/12/11 08:18:24;;;;;;;24.52;17.92;;;2.80;99.90;;;;;;5055076;28;20049;-78
2020/12/11 08:20:55;;;;;;;23.58;16.15;;;2.70;99.90;;;;;;5054805;28;20056;-80
2020/12/11 08:23:43;;;;;;;25.60;18.52;;;2.80;99.90;;;;;;5051134;28;20048;-80
2020/12/11 08:26:24;;;;;;;25.42;16.48;;;2.80;99.90;;;;;;5057468;28;20044;-81
2020/12/11 08:29:05;;;;;;;24.90;17.92;;;2.80;99.90;;;;;;5052088;28;20136;-79
2020/12/11 08:31:38;;;;;;;25.23;16.88;;;2.90;99.90;;;;;;5033781;28;20148;-81
2020/12/11 08:34:09;;;;;;;26.25;16.65;;;2.90;99.90;;;;;;5046510;28;21203;-78
2020/12/11 08:36:45;;;;;;;23.70;15.52;;;2.90;99.90;;;;;;5034989;28;20077;-80
2020/12/11 08:39:16;;;;;;;27.63;16.75;;;3.00;99.90;;;;;;5034147;28;20464;-79
2020/12/11 08:50:28;;;;;;;23.55;16.42;;;3.10;99.90;;;;;;5006707;28;20049;-78
2020/12/11 08:52:56;;;;;;;24.30;16.30;;;3.10;99.90;;;;;;5032118;28;20427;-79
2020/12/11 08:55:23;;;;;;;22.85;14.77;;;3.20;99.90;;;;;;5033184;28;20576;-79
2020/12/11 08:57:49;;;;;;;25.55;16.48;;;3.20;99.90;;;;;;5033468;28;20113;-79
2020/12/11 09:00:20;;;;;;;25.27;17.23;;;3.20;99.90;;;;;;5033549;28;20238;-80
2020/12/11 09:02:46;;;;;;;23.75;17.77;;;3.30;99.90;;;;;;5034971;28;20045;-79
2020/12/11 09:05:13;;;;;;;21.98;16.42;;;3.30;99.90;;;;;;5040581;28;20049;-77
2020/12/11 09:07:42;;;;;;;23.23;15.50;;;3.30;99.90;;;;;;5043868;28;20136;-79
2020/12/11 09:10:09;;;;;;;20.35;14.93;;;3.30;99.90;;;;;;5033522;28;20132;-77
2020/12/11 09:12:36;;;;;;;30.50;16.48;;;3.30;99.90;;;;;;5032407;28;20103;-79
2020/12/11 09:15:06;;;;;;;22.42;15.45;;;3.40;99.90;;;;;;5034513;28;20056;-78
2020/12/11 09:17:33;;;;;;;22.83;15.55;;;3.40;99.90;;;;;;5036690;28;20136;-80
2020/12/11 09:20:00;;;;;;;24.35;16.58;;;3.40;99.90;;;;;;5038486;28;20095;-79
2020/12/11 09:22:26;;;;;;;22.70;15.05;;;3.40;99.90;;;;;;5049318;28;20111;-79
2020/12/11 09:24:52;;;;;;;23.13;16.15;;;3.50;99.90;;;;;;5049212;28;20067;-78
2020/12/11 09:27:19;;;;;;;22.58;15.65;;;3.50;99.90;;;;;;5042964;28;20049;-79
2020/12/11 09:29:47;;;;;;;19.83;14.07;;;3.50;99.90;;;;;;5037398;28;20137;-80
2020/12/11 09:32:18;;;;;;;19.58;13.30;;;3.60;99.90;;;;;;5049555;28;20073;-82
2020/12/11 09:34:45;;;;;;;23.63;14.77;;;3.60;99.90;;;;;;5048505;28;20050;-79
2020/12/11 09:37:11;;;;;;;22.40;15.88;;;3.60;99.90;;;;;;5037842;28;20080;-80
2020/12/11 09:39:38;;;;;;;20.83;15.35;;;3.60;99.90;;;;;;5045742;28;20049;-80
2020/12/11 09:42:14;;;;;;;23.88;15.73;;;3.60;99.90;;;;;;5050717;28;20568;-78
2020/12/11 09:44:53;;;;;;;21.50;14.40;;;3.70;99.90;;;;;;5037777;28;20053;-79
2020/12/11 09:55:51;;;;;;;22.50;16.52;;;3.80;99.90;;;;;;5021895;28;20139;-79
2020/12/11 09:58:18;;;;;;;19.58;14.48;;;3.90;99.90;;;;;;5053307;28;20132;-79
2020/12/11 10:00:47;;;;;;;18.15;12.85;;;3.90;99.90;;;;;;5053008;28;20053;-79
2020/12/11 10:03:16;;;;;;;22.13;15.05;;;3.90;99.90;;;;;;5047368;28;20057;-79
2020/12/11 10:05:44;;;;;;;19.00;12.95;;;4.00;99.90;;;;;;5051669;28;20087;-78
2020/12/11 10:08:10;;;;;;;19.30;13.60;;;4.00;99.90;;;;;;5052059;28;20133;-78
2020/12/11 10:10:36;;;;;;;20.48;14.18;;;4.10;99.90;;;;;;5051911;28;20140;-77
2020/12/11 10:13:04;;;;;;;18.17;12.93;;;4.10;99.90;;;;;;5053007;28;20572;-78
2020/12/11 10:15:31;;;;;;;19.15;13.43;;;4.20;99.90;;;;;;5054852;28;20052;-78
2020/12/11 10:18:02;;;;;;;17.10;12.35;;;4.20;99.90;;;;;;5056151;28;20056;-78
2020/12/11 10:20:28;;;;;;;20.63;14.63;;;4.30;99.90;;;;;;5054917;28;20517;-78
2020/12/11 10:22:56;;;;;;;18.30;12.63;;;4.30;99.90;;;;;;5055976;28;20132;-77
2020/12/11 10:25:22;;;;;;;18.38;12.63;;;4.40;99.90;;;;;;5059745;28;20045;-78
2020/12/11 10:27:49;;;;;;;19.95;13.55;;;4.40;99.90;;;;;;5058151;28;20080;-78
2020/12/11 10:30:15;;;;;;;21.02;14.07;;;4.40;99.90;;;;;;5058695;28;20075;-79
2020/12/11 10:32:42;;;;;;;19.15;14.05;;;4.50;99.90;;;;;;5060087;28;20083;-79
2020/12/11 10:35:08;;;;;;;18.00;12.88;;;4.50;99.90;;;;;;5059045;28;20049;-80
2020/12/11 10:37:35;;;;;;;18.35;12.85;;;4.50;99.90;;;;;;5058628;28;20198;-80
2020/12/11 10:40:03;;;;;;;18.08;12.32;;;4.40;99.90;;;;;;5058064;28;20126;-80
2020/12/11 10:42:30;;;;;;;21.17;13.38;;;4.50;99.90;;;;;;5057950;28;20053;-80
2020/12/11 10:44:56;;;;;;;16.92;11.95;;;4.50;99.90;;;;;;5058477;28;20176;-80
2020/12/11 10:47:26;;;;;;;19.75;12.82;;;4.50;99.90;;;;;;5058552;28;20080;-78
2020/12/11 10:49:52;;;;;;;16.15;11.98;;;4.50;99.90;;;;;;5057266;28;20045;-79
2020/12/11 10:52:19;;;;;;;17.38;12.38;;;4.50;99.90;;;;;;5058290;28;20477;-80
2020/12/11 10:54:46;;;;;;;16.95;12.23;;;4.50;99.90;;;;;;5058378;28;20084;-80
2020/12/11 10:57:14;;;;;;;17.33;12.27;;;4.50;99.90;;;;;;5058889;28;20053;-80
2020/12/11 10:59:40;;;;;;;16.65;12.05;;;4.50;99.90;;;;;;5057564;28;20131;-80
2020/12/11 11:02:06;;;;;;;19.02;10.70;;;4.50;99.90;;;;;;5059164;28;20528;-80
2020/12/11 11:04:33;;;;;;;16.33;11.55;;;4.50;99.90;;;;;;5060828;28;20087;-79
2020/12/11 11:07:01;;;;;;;17.02;11.68;;;4.50;99.90;;;;;;5059351;28;20080;-80
2020/12/11 11:09:36;;;;;;;15.73;11.07;;;4.50;99.90;;;;;;5059429;28;20049;-80
2020/12/11 11:12:10;;;;;;;16.40;11.45;;;4.50;99.90;;;;;;5059176;28;20049;-80
2020/12/11 11:20:10;;;;;;;14.75;10.82;;;4.50;99.90;;;;;;5055685;28;20037;-79
2020/12/11 11:22:53;;;;;;;13.18;9.43;;;4.50;99.90;;;;;;5058971;28;20056;-79
2020/12/11 11:27:56;;;;;;;15.93;10.57;;;4.60;99.90;;;;;;5059129;28;20064;-81
2020/12/11 11:30:28;;;;;;;17.95;11.05;;;4.60;99.90;;;;;;5057760;28;20053;-79
2020/12/11 11:32:54;;;;;;;15.05;10.93;;;4.70;99.90;;;;;;5058477;28;20055;-81
2020/12/11 11:35:22;;;;;;;15.00;9.93;;;4.80;99.90;;;;;;5058384;28;20080;-79
2020/12/11 11:37:49;;;;;;;14.90;11.02;;;4.80;99.90;;;;;;5057381;28;20108;-79
2020/12/11 11:40:16;;;;;;;16.42;11.05;;;4.80;99.90;;;;;;5058526;28;20072;-80
2020/12/11 11:42:43;;;;;;;15.20;10.43;;;4.90;99.90;;;;;;5060441;22;20057;-71
2020/12/11 11:45:13;;;;;;;16.05;9.57;;;4.90;99.90;;;;;;5012927;28;20077;-76
2020/12/11 11:47:45;;;;;;;14.82;11.25;;;5.00;99.90;;;;;;5012969;28;20058;-74
2020/12/11 11:53:01;;;;;;;13.82;10.35;;;5.00;99.90;;;;;;5011976;28;20046;-74
2020/12/11 11:55:28;;;;;;;12.32;8.80;;;5.10;99.90;;;;;;5013079;28;20072;-75
2020/12/11 11:57:54;;;;;;;14.68;11.02;;;5.10;99.90;;;;;;5013317;28;20100;-73
2020/12/11 12:00:21;;;;;;;14.50;10.30;;;5.20;99.90;;;;;;5012206;28;20077;-74
2020/12/11 12:02:48;;;;;;;13.60;10.13;;;5.20;99.90;;;;;;5012155;28;20049;-74
2020/12/11 12:05:15;;;;;;;14.45;10.02;;;5.20;99.90;;;;;;5012895;28;20484;-74
2020/12/11 12:07:42;;;;;;;13.32;10.30;;;5.30;99.90;;;;;;5012557;28;20046;-74
2020/12/11 12:10:09;;;;;;;13.65;10.48;;;5.30;99.90;;;;;;5011613;28;20049;-75
2020/12/11 12:12:38;;;;;;;17.73;10.93;;;5.30;99.90;;;;;;5012015;28;20057;-73
2020/12/11 12:15:11;;;;;;;17.13;11.40;;;5.40;99.90;;;;;;5011985;28;20306;-74
2020/12/11 12:17:40;;;;;;;14.68;11.18;;;5.50;99.90;;;;;;5012273;28;20057;-75
2020/12/11 12:20:10;;;;;;;14.10;10.65;;;5.70;99.90;;;;;;5011979;28;20465;-76
2020/12/11 12:30:50;;;;;;;13.60;9.50;;;6.20;99.90;;;;;;5011649;28;20532;-75
2020/12/11 12:38:53;;;;;;;14.52;10.13;;;6.50;99.90;;;;;;5006465;28;20137;-74
2020/12/11 12:44:04;;;;;;;11.20;8.63;;;6.80;99.90;;;;;;5012144;28;20496;-75
2020/12/11 12:46:31;;;;;;;14.27;9.88;;;6.80;99.90;;;;;;5012029;28;20038;-75
2020/12/11 12:48:57;;;;;;;13.27;10.20;;;6.80;99.90;;;;;;5011686;28;20071;-75
2020/12/11 12:51:25;;;;;;;13.02;8.73;;;6.70;99.90;;;;;;5011337;28;20085;-75
2020/12/11 12:53:51;;;;;;;14.80;10.10;;;6.60;99.90;;;;;;5011725;28;20045;-75
2020/12/11 12:56:41;;;;;;;12.20;9.45;;;6.70;99.90;;;;;;5012169;28;20497;-75
2020/12/11 12:59:12;;;;;;;12.82;9.77;;;6.70;99.90;;;;;;5011603;28;20069;-75
2020/12/11 13:01:57;;;;;;;12.75;9.07;;;6.60;99.90;;;;;;5011409;28;20487;-74
2020/12/11 13:04:31;;;;;;;12.18;9.18;;;6.40;99.90;;;;;;5011918;28;20049;-76
2020/12/11 13:06:58;;;;;;;12.02;8.70;;;6.40;99.90;;;;;;5012012;28;20041;-76
2020/12/11 13:09:25;;;;;;;11.38;9.02;;;6.30;99.90;;;;;;5011341;28;20136;-76
2020/12/11 13:11:52;;;;;;;14.85;9.70;;;6.20;99.90;;;;;;5011255;28;20517;-74
2020/12/11 13:14:18;;;;;;;14.32;9.70;;;6.30;99.90;;;;;;5012189;28;20136;-72
2020/12/11 13:16:45;;;;;;;12.43;8.65;;;6.30;99.90;;;;;;5012071;28;20128;-78
2020/12/11 13:19:14;;;;;;;13.07;9.15;;;6.30;99.90;;;;;;5012052;28;20105;-76
2020/12/11 13:21:48;;;;;;;13.93;9.75;;;6.20;99.90;;;;;;5011019;28;20477;-75
2020/12/11 13:27:05;;;;;;;14.73;10.18;;;6.00;99.90;;;;;;5011919;28;20151;-75
2020/12/11 13:29:31;;;;;;;13.32;9.95;;;6.00;99.90;;;;;;5011064;28;20046;-75
2020/12/11 13:31:59;;;;;;;12.43;9.77;;;5.90;99.90;;;;;;5011435;28;20550;-76
2020/12/11 13:34:31;;;;;;;12.35;9.48;;;5.90;99.90;;;;;;5011931;28;20057;-76
2020/12/11 13:36:57;;;;;;;13.47;9.73;;;5.90;99.90;;;;;;5011815;28;20054;-76